Time;durP1;ratioP1;P1;durP2;ratioP2;P2;SDS_P1;SDS_P2;PMS_P1;PMS_P2;Temp;Humidity;BMP_temperature;BMP_pressure;BME280_temperature;BME280_humidity;BME280_pressure;Samples;Min_cycle;Max_cycle;Signal;HPM_P1;HPM_P2
2022/11/21 00:00:28;;;;;;;;;;;1.80;99.90;;;;;;5013323;28;20034;-51
2022/11/21 00:02:58;;;;;;;33.80;22.80;;;1.80;99.90;;;;;;5012580;28;20486;-52
2022/11/21 00:05:24;;;;;;;34.85;23.67;;;1.70;99.90;;;;;;5005530;28;20034;-51
2022/11/21 00:07:49;;;;;;;38.63;23.57;;;1.70;99.90;;;;;;5003922;28;20045;-50
2022/11/21 00:10:15;;;;;;;34.03;21.27;;;1.70;99.90;;;;;;4995641;28;20042;-50
2022/11/21 00:12:41;;;;;;;37.88;22.50;;;1.70;99.90;;;;;;4993002;28;20038;-52
2022/11/21 00:15:07;;;;;;;34.70;23.00;;;1.70;99.90;;;;;;4999294;28;20499;-53
2022/11/21 00:17:33;;;;;;;32.90;22.13;;;1.70;99.90;;;;;;5012682;28;20066;-53
2022/11/21 00:19:58;;;;;;;31.13;20.73;;;1.70;99.90;;;;;;5012883;28;20443;-52
2022/11/21 00:22:24;;;;;;;37.07;23.17;;;1.80;99.90;;;;;;5010354;28;20467;-51
2022/11/21 00:24:49;;;;;;;35.23;22.93;;;1.80;99.90;;;;;;5011575;28;20040;-53
2022/11/21 00:27:16;;;;;;;;;;;1.80;99.90;;;;;;5004402;28;20055;-51
2022/11/21 00:29:41;;;;;;;29.63;20.30;;;1.80;99.90;;;;;;4992789;28;19924;-53
2022/11/21 00:32:07;;;;;;;29.60;19.87;;;1.80;99.90;;;;;;4993750;28;20057;-50
2022/11/21 00:34:32;;;;;;;29.80;20.17;;;1.80;99.90;;;;;;5011900;28;20393;-52
2022/11/21 00:36:58;;;;;;;29.80;20.47;;;1.70;99.90;;;;;;5012227;28;20392;-52
2022/11/21 00:39:23;;;;;;;30.60;21.33;;;1.70;99.90;;;;;;5011932;28;20053;-57
2022/11/21 00:41:49;;;;;;;32.13;21.77;;;1.70;99.90;;;;;;4993228;28;20185;-50
2022/11/21 00:44:14;;;;;;;29.87;20.67;;;1.70;99.90;;;;;;4992387;28;20042;-50
2022/11/21 00:46:40;;;;;;;34.63;21.77;;;1.70;99.90;;;;;;4992616;28;20117;-55
2022/11/21 00:49:05;;;;;;;30.33;20.50;;;1.70;99.90;;;;;;4992435;28;20057;-52
2022/11/21 00:51:31;;;;;;;31.30;21.73;;;1.70;99.90;;;;;;4992442;28;20049;-51
2022/11/21 00:53:56;;;;;;;30.53;21.10;;;1.70;99.90;;;;;;4991539;28;20042;-54
2022/11/21 00:56:22;;;;;;;31.10;22.93;;;1.70;99.90;;;;;;4992224;28;20047;-56
2022/11/21 00:58:47;;;;;;;33.60;22.37;;;1.80;99.90;;;;;;4993522;28;20125;-54
2022/11/21 01:01:14;;;;;;;31.67;21.67;;;1.80;99.90;;;;;;5005375;28;20379;-53
2022/11/21 01:03:40;;;;;;;31.83;21.80;;;1.70;99.90;;;;;;5000128;28;20146;-54
2022/11/21 01:06:11;;;;;;;34.10;22.77;;;1.70;99.90;;;;;;5002945;28;20125;-54
2022/11/21 01:08:39;;;;;;;29.08;20.85;;;1.70;99.90;;;;;;5009704;28;20041;-52
2022/11/21 01:11:10;;;;;;;29.58;18.42;;;1.70;99.90;;;;;;4999442;28;20037;-56
2022/11/21 01:13:37;;;;;;;29.70;19.98;;;1.70;99.90;;;;;;4999857;28;20042;-53
2022/11/21 01:16:07;;;;;;;27.42;20.20;;;1.60;99.90;;;;;;5005243;28;20042;-51
2022/11/21 01:18:34;;;;;;;30.65;21.48;;;1.60;99.90;;;;;;5002066;28;20030;-56
2022/11/21 01:21:02;;;;;;;32.72;20.98;;;1.60;99.90;;;;;;4991397;28;20464;-55
2022/11/21 01:23:28;;;;;;;31.02;20.40;;;1.60;99.90;;;;;;4992843;28;20116;-53
2022/11/21 01:25:53;;;;;;;38.75;21.80;;;1.60;99.90;;;;;;4991891;28;20049;-54
2022/11/21 01:28:19;;;;;;;31.60;21.07;;;1.60;99.90;;;;;;4991752;28;20455;-51
2022/11/21 01:30:44;;;;;;;32.03;21.67;;;1.60;99.90;;;;;;4991790;28;20305;-52
2022/11/21 01:33:10;;;;;;;30.37;20.63;;;1.70;99.90;;;;;;4992173;28;20058;-50
2022/11/21 01:35:35;;;;;;;36.87;23.37;;;1.70;99.90;;;;;;4991597;28;20076;-53
2022/11/21 01:38:01;;;;;;;33.93;22.17;;;1.70;99.90;;;;;;4991558;28;20465;-53
2022/11/21 01:40:26;;;;;;;38.43;21.87;;;1.70;99.90;;;;;;5002966;28;20388;-50
2022/11/21 01:42:57;;;;;;;32.20;20.37;;;1.70;99.90;;;;;;5009599;28;20506;-58
2022/11/21 01:45:58;;;;;;;31.15;20.27;;;1.60;99.90;;;;;;5010775;28;20561;-50
2022/11/21 01:48:38;;;;;;;33.55;21.58;;;1.60;99.90;;;;;;5009622;28;20129;-52
2022/11/21 01:51:27;;;;;;;30.05;19.58;;;1.60;99.90;;;;;;5002014;28;20044;-50
2022/11/21 01:54:18;;;;;;;35.40;22.55;;;1.60;99.90;;;;;;4970746;28;20043;-51
2022/11/21 01:56:58;;;;;;;28.55;20.90;;;1.50;99.90;;;;;;4987219;28;20052;-53
2022/11/21 01:59:29;;;;;;;29.65;20.13;;;1.50;99.90;;;;;;4990924;28;20070;-50
2022/11/21 02:01:55;;;;;;;32.20;22.00;;;1.50;99.90;;;;;;4991126;28;20045;-54
2022/11/21 02:04:23;;;;;;;;;;;1.50;99.90;;;;;;4991307;28;20127;-50
2022/11/21 02:06:49;;;;;;;;;;;1.50;99.90;;;;;;4991000;28;20462;-50
2022/11/21 02:09:15;;;;;;;31.83;20.75;;;1.50;99.90;;;;;;4991178;28;20012;-51
2022/11/21 02:11:48;;;;;;;36.40;22.60;;;1.50;99.90;;;;;;4997287;28;20404;-50
2022/11/21 02:14:14;;;;;;;32.58;21.25;;;1.60;99.90;;;;;;4991066;28;20038;-50
2022/11/21 02:16:40;;;;;;;34.10;21.95;;;1.60;99.90;;;;;;4991107;28;20066;-51
2022/11/21 02:19:14;;;;;;;38.63;22.83;;;1.60;99.90;;;;;;4991297;28;20042;-53
2022/11/21 02:21:51;;;;;;;30.88;22.38;;;1.60;99.90;;;;;;4991171;28;20046;-50
2022/11/21 02:24:27;;;;;;;31.63;22.23;;;1.60;99.90;;;;;;4990993;28;20093;-55
2022/11/21 02:26:52;;;;;;;30.70;21.35;;;1.50;99.90;;;;;;4992024;28;20092;-53
2022/11/21 02:29:18;;;;;;;35.70;22.70;;;1.50;99.90;;;;;;4991382;28;20034;-49
2022/11/21 02:31:44;;;;;;;32.20;23.10;;;1.50;99.90;;;;;;4990536;28;20081;-52
2022/11/21 02:34:09;;;;;;;33.23;22.37;;;1.50;99.90;;;;;;4990413;28;20109;-54
2022/11/21 02:36:46;;;;;;;35.40;23.10;;;1.50;99.90;;;;;;4990620;28;20520;-52
2022/11/21 02:39:21;;;;;;;34.22;22.30;;;1.50;99.90;;;;;;4990968;28;20137;-54
2022/11/21 02:41:58;;;;;;;33.95;22.52;;;1.50;99.90;;;;;;4990685;28;20129;-54
2022/11/21 02:44:47;;;;;;;32.63;21.70;;;1.60;99.90;;;;;;4990710;28;20562;-53
2022/11/21 02:47:12;;;;;;;32.45;21.30;;;1.60;99.90;;;;;;4990087;28;20065;-51
2022/11/21 02:49:54;;;;;;;34.73;22.00;;;1.60;99.90;;;;;;4990594;28;20042;-55
2022/11/21 02:52:19;;;;;;;33.00;22.23;;;1.70;99.90;;;;;;4990655;28;20081;-52
2022/11/21 02:54:45;;;;;;;31.00;21.33;;;1.60;99.90;;;;;;4989675;28;20488;-53
2022/11/21 02:57:10;;;;;;;36.07;24.03;;;1.60;99.90;;;;;;4989274;28;20642;-54
2022/11/21 02:59:36;;;;;;;37.60;23.23;;;1.60;99.90;;;;;;4990503;28;20042;-52
2022/11/21 03:02:02;;;;;;;32.07;22.07;;;1.60;99.90;;;;;;4991166;28;20043;-54
2022/11/21 03:04:27;;;;;;;31.67;22.23;;;1.60;99.90;;;;;;4988745;28;20034;-52
2022/11/21 03:06:53;;;;;;;32.47;22.57;;;1.70;99.90;;;;;;4990131;28;20046;-55
2022/11/21 03:09:19;;;;;;;35.33;21.92;;;1.70;99.90;;;;;;4990101;28;20038;-51
2022/11/21 03:11:45;;;;;;;32.07;22.10;;;1.70;99.90;;;;;;5008878;28;20038;-54
2022/11/21 03:14:10;;;;;;;34.67;22.30;;;1.70;99.90;;;;;;5013536;28;20045;-55
2022/11/21 03:16:36;;;;;;;36.17;23.90;;;1.70;99.90;;;;;;5013429;28;20301;-55
2022/11/21 03:19:01;;;;;;;30.57;20.10;;;1.70;99.90;;;;;;4998141;28;20039;-54
2022/11/21 03:21:27;;;;;;;31.23;20.70;;;1.70;99.90;;;;;;5002246;28;20046;-54
2022/11/21 03:23:52;;;;;;;29.80;19.63;;;1.70;99.90;;;;;;5013460;28;20091;-54
2022/11/21 03:26:18;;;;;;;32.50;20.40;;;1.70;99.90;;;;;;5009714;28;20080;-54
2022/11/21 03:28:44;;;;;;;30.55;19.50;;;1.70;99.90;;;;;;5007720;28;20043;-54
2022/11/21 03:31:09;;;;;;;30.93;20.60;;;1.70;99.90;;;;;;5001406;28;20384;-51
2022/11/21 03:33:35;;;;;;;29.63;19.37;;;1.60;99.90;;;;;;5006712;28;20034;-52
2022/11/21 03:36:00;;;;;;;29.93;21.30;;;1.60;99.90;;;;;;5006726;28;20042;-53
2022/11/21 03:38:26;;;;;;;27.10;18.70;;;1.50;99.90;;;;;;5012335;28;20495;-50
2022/11/21 03:40:51;;;;;;;30.73;20.67;;;1.50;99.90;;;;;;5013581;28;20033;-51
2022/11/21 03:43:17;;;;;;;31.97;22.13;;;1.50;99.90;;;;;;5013095;28;20040;-56
2022/11/21 03:45:46;;;;;;;29.53;20.33;;;1.50;99.90;;;;;;5013532;28;20045;-49
2022/11/21 03:48:11;;;;;;;32.22;21.20;;;1.50;99.90;;;;;;5013288;28;20034;-53
2022/11/21 03:50:37;;;;;;;28.87;20.73;;;1.50;99.90;;;;;;5013192;28;20136;-50
2022/11/21 03:53:02;;;;;;;33.07;22.23;;;1.50;99.90;;;;;;5012282;28;20435;-53
2022/11/21 03:55:28;;;;;;;31.37;20.83;;;1.50;99.90;;;;;;5011869;28;20042;-53
2022/11/21 03:57:53;;;;;;;31.57;21.27;;;1.50;99.90;;;;;;5012550;28;20034;-53
2022/11/21 04:00:19;;;;;;;29.63;19.70;;;1.40;99.90;;;;;;5013039;28;20033;-50
2022/11/21 04:02:44;;;;;;;36.00;22.57;;;1.40;99.90;;;;;;5012860;28;20041;-51
2022/11/21 04:05:10;;;;;;;29.80;19.67;;;1.30;99.90;;;;;;5012691;28;20033;-51
2022/11/21 04:07:35;;;;;;;37.13;21.33;;;1.20;99.90;;;;;;5012400;28;20046;-51
2022/11/21 04:10:01;;;;;;;35.07;22.43;;;1.20;99.90;;;;;;5011233;28;20048;-51
2022/11/21 04:12:26;;;;;;;28.87;19.57;;;1.20;99.90;;;;;;5012460;28;20046;-53
2022/11/21 04:14:52;;;;;;;30.27;19.70;;;1.20;99.90;;;;;;5012283;28;20042;-53
2022/11/21 04:17:17;;;;;;;28.53;18.77;;;1.20;99.90;;;;;;5012516;28;20038;-51
2022/11/21 04:19:43;;;;;;;30.33;21.27;;;1.20;99.90;;;;;;5012563;28;20038;-55
2022/11/21 04:22:08;;;;;;;26.67;18.10;;;1.20;99.90;;;;;;5011658;28;20034;-52
2022/11/21 04:24:34;;;;;;;22.77;16.97;;;1.10;99.90;;;;;;5012304;28;20046;-50
2022/11/21 04:26:59;;;;;;;28.87;19.80;;;1.10;99.90;;;;;;5010520;28;20503;-52
2022/11/21 04:29:25;;;;;;;25.43;17.37;;;1.00;99.90;;;;;;4994592;28;20236;-51
2022/11/21 04:31:50;;;;;;;29.90;19.50;;;1.00;99.90;;;;;;4993076;28;20045;-53
2022/11/21 04:34:16;;;;;;;27.80;18.43;;;0.90;99.90;;;;;;4992495;28;20047;-53
2022/11/21 04:36:42;;;;;;;23.57;16.97;;;0.80;99.90;;;;;;4992104;28;20108;-50
2022/11/21 04:39:07;;;;;;;26.57;18.83;;;0.70;99.90;;;;;;4992584;28;20451;-52
2022/11/21 04:41:33;;;;;;;28.87;18.37;;;0.70;99.90;;;;;;4992833;28;20038;-55
2022/11/21 04:43:58;;;;;;;24.17;17.50;;;0.60;99.90;;;;;;4993324;28;20038;-50
2022/11/21 04:46:24;;;;;;;26.80;17.40;;;0.60;99.90;;;;;;4992648;28;20046;-50
2022/11/21 04:48:49;;;;;;;22.33;16.70;;;0.60;99.90;;;;;;4991296;28;20379;-53
2022/11/21 04:51:15;;;;;;;27.10;18.27;;;0.60;99.90;;;;;;4992417;28;20096;-53
2022/11/21 04:53:40;;;;;;;28.27;18.80;;;0.60;99.90;;;;;;4991687;28;20247;-50
2022/11/21 04:56:06;;;;;;;29.17;20.77;;;0.50;99.90;;;;;;4992477;28;20043;-56
2022/11/21 04:58:31;;;;;;;24.07;17.70;;;0.50;99.90;;;;;;4992591;28;20038;-54
2022/11/21 05:00:57;;;;;;;24.93;16.50;;;0.50;99.90;;;;;;4992508;28;20046;-54
2022/11/21 05:03:22;;;;;;;27.97;19.57;;;0.40;99.90;;;;;;4992696;28;20431;-54
2022/11/21 05:05:48;;;;;;;25.73;17.80;;;0.40;99.90;;;;;;4991974;28;20508;-53
2022/11/21 05:08:14;;;;;;;24.07;17.10;;;0.30;99.90;;;;;;4991923;28;20156;-52
2022/11/21 05:13:23;;;;;;;25.13;17.27;;;0.30;99.90;;;;;;4992096;28;20472;-53
2022/11/21 05:15:55;;;;;;;26.77;18.33;;;0.30;99.90;;;;;;4990616;28;20078;-53
2022/11/21 05:18:21;;;;;;;27.70;19.52;;;0.30;99.90;;;;;;4991612;28;20161;-56
2022/11/21 05:20:46;;;;;;;28.30;18.67;;;0.20;99.90;;;;;;4992863;28;20042;-55
2022/11/21 05:23:12;;;;;;;28.77;19.83;;;0.20;99.90;;;;;;4990235;28;20046;-53
2022/11/21 05:25:38;;;;;;;23.52;17.00;;;0.20;99.90;;;;;;4991571;28;20045;-56
2022/11/21 05:28:04;;;;;;;31.67;20.83;;;0.20;99.90;;;;;;4999494;28;20096;-53
2022/11/21 05:30:29;;;;;;;30.43;20.77;;;0.20;99.90;;;;;;5011203;28;20550;-54
2022/11/21 05:32:55;;;;;;;32.50;20.63;;;0.10;99.90;;;;;;5010016;28;20041;-53
2022/11/21 05:35:20;;;;;;;31.53;20.23;;;0.10;99.90;;;;;;5010379;28;20034;-52
2022/11/21 05:37:46;;;;;;;30.47;20.27;;;0.10;99.90;;;;;;5012466;28;20119;-50
2022/11/21 05:40:11;;;;;;;34.00;23.00;;;0.10;99.90;;;;;;5000806;28;20296;-53
2022/11/21 05:45:25;;;;;;;33.85;22.55;;;0.10;99.90;;;;;;5004938;28;20038;-51
2022/11/21 05:47:51;;;;;;;35.53;22.67;;;0.10;99.90;;;;;;5009246;28;20038;-53
2022/11/21 05:50:16;;;;;;;33.17;21.90;;;0.10;99.90;;;;;;5006787;28;20127;-54
2022/11/21 05:52:42;;;;;;;37.17;23.27;;;0.10;99.90;;;;;;5000527;28;20088;-52
2022/11/21 05:55:07;;;;;;;38.80;23.63;;;0.10;99.90;;;;;;5001051;28;20523;-53
2022/11/21 05:57:33;;;;;;;34.83;22.43;;;0.10;99.90;;;;;;5007272;28;20495;-53
2022/11/21 05:59:58;;;;;;;40.07;26.37;;;0.10;99.90;;;;;;5000495;28;20368;-49
2022/11/21 06:05:08;;;;;;;34.83;22.25;;;0.00;99.90;;;;;;4990528;28;20042;-50
2022/11/21 06:07:34;;;;;;;42.47;25.53;;;0.00;99.90;;;;;;4990727;28;20042;-54
2022/11/21 06:09:59;;;;;;;44.03;25.53;;;0.00;99.90;;;;;;5009232;28;20030;-55
2022/11/21 06:12:25;;;;;;;40.17;25.67;;;0.00;99.90;;;;;;5005106;28;20113;-50
2022/11/21 06:14:50;;;;;;;42.33;25.47;;;0.00;99.90;;;;;;4990702;28;20050;-52
2022/11/21 06:17:16;;;;;;;39.83;26.33;;;0.10;99.90;;;;;;4991174;28;20046;-55
2022/11/21 06:19:41;;;;;;;44.57;27.97;;;0.10;99.90;;;;;;4990973;28;20034;-51
2022/11/21 06:22:07;;;;;;;39.20;24.90;;;0.10;99.90;;;;;;4989471;28;20047;-50
2022/11/21 06:24:32;;;;;;;41.60;24.80;;;0.10;99.90;;;;;;4990761;28;20435;-53
2022/11/21 06:26:58;;;;;;;37.03;23.73;;;0.10;99.90;;;;;;4990853;28;20503;-50
2022/11/21 06:29:23;;;;;;;37.50;23.67;;;0.10;99.90;;;;;;4990904;28;20046;-52
2022/11/21 06:31:49;;;;;;;40.77;23.87;;;0.10;99.90;;;;;;4991744;28;20419;-50
2022/11/21 06:34:15;;;;;;;39.42;24.45;;;0.00;99.90;;;;;;4989670;28;20046;-51
2022/11/21 06:36:40;;;;;;;38.23;24.00;;;0.00;99.90;;;;;;4990689;28;20094;-54
2022/11/21 06:39:06;;;;;;;34.73;22.07;;;0.00;99.90;;;;;;4990880;28;20049;-50
2022/11/21 06:41:32;;;;;;;27.60;19.40;;;0.00;99.90;;;;;;4990736;28;20117;-50
2022/11/21 06:44:00;;;;;;;36.30;23.43;;;-0.10;99.90;;;;;;4990724;28;20066;-53
2022/11/21 06:46:26;;;;;;;34.13;22.13;;;-0.10;99.90;;;;;;5011591;28;20049;-53
2022/11/21 06:48:52;;;;;;;37.00;22.02;;;-0.20;99.90;;;;;;5009884;28;20045;-52
2022/11/21 06:51:20;;;;;;;34.72;21.90;;;-0.20;99.90;;;;;;5008886;28;20092;-50
2022/11/21 06:53:54;;;;;;;35.15;22.65;;;-0.20;99.90;;;;;;5000111;28;20045;-56
2022/11/21 06:56:20;;;;;;;36.50;22.08;;;-0.30;99.90;;;;;;4999138;28;20046;-50
2022/11/21 06:58:45;;;;;;;32.93;21.03;;;-0.40;99.90;;;;;;5014338;28;20114;-51
2022/11/21 07:01:12;;;;;;;36.90;22.80;;;-0.40;99.90;;;;;;5013539;28;20037;-56
2022/11/21 07:03:37;;;;;;;34.17;22.65;;;-0.40;99.90;;;;;;5012079;28;20053;-55
2022/11/21 07:06:04;;;;;;;39.43;23.37;;;-0.40;99.90;;;;;;5011820;28;20084;-55
2022/11/21 07:08:31;;;;;;;35.88;23.75;;;-0.40;99.90;;;;;;5013833;28;20038;-53
2022/11/21 07:11:05;;;;;;;37.75;24.23;;;-0.40;99.90;;;;;;4996982;28;20566;-56
2022/11/21 07:13:31;;;;;;;39.42;24.30;;;-0.40;99.90;;;;;;5000475;28;20117;-54
2022/11/21 07:16:02;;;;;;;37.25;23.52;;;-0.40;99.90;;;;;;5012758;28;20176;-51
2022/11/21 07:18:28;;;;;;;46.72;27.30;;;-0.30;99.90;;;;;;5013278;28;20037;-54
2022/11/21 07:21:02;;;;;;;41.15;25.48;;;-0.30;99.90;;;;;;5009968;28;20514;-54
2022/11/21 07:23:28;;;;;;;42.08;26.58;;;-0.20;99.90;;;;;;5007096;28;20412;-57
2022/11/21 07:25:58;;;;;;;40.65;25.15;;;-0.10;99.90;;;;;;5000731;28;20037;-54
2022/11/21 07:28:23;;;;;;;42.53;26.15;;;0.10;99.90;;;;;;5010099;28;20453;-54
2022/11/21 07:30:49;;;;;;;41.50;25.83;;;0.20;99.90;;;;;;5013693;28;20130;-54
2022/11/21 07:33:14;;;;;;;35.93;22.67;;;0.50;99.90;;;;;;5011664;28;20124;-56
2022/11/21 07:35:41;;;;;;;33.67;24.00;;;0.80;99.90;;;;;;4994009;28;20116;-54
2022/11/21 07:38:07;;;;;;;38.17;24.45;;;1.10;99.90;;;;;;4993980;28;20042;-50
2022/11/21 07:40:33;;;;;;;29.77;22.53;;;1.30;99.90;;;;;;5005408;28;20041;-54
2022/11/21 07:43:04;;;;;;;31.70;21.65;;;1.40;99.90;;;;;;5010327;28;20042;-53
2022/11/21 07:45:30;;;;;;;33.83;22.40;;;1.40;99.90;;;;;;5013387;28;20033;-51
2022/11/21 07:48:00;;;;;;;49.95;23.35;;;1.50;99.90;;;;;;5007434;28;20527;-51
2022/11/21 07:50:27;;;;;;;37.03;21.27;;;1.80;99.90;;;;;;4993454;28;20039;-50
2022/11/21 07:52:56;;;;;;;;;;;2.10;99.90;;;;;;4997765;28;20029;-55
2022/11/21 07:55:22;;;;;;;29.80;19.88;;;2.40;99.90;;;;;;5000487;28;19917;-52
2022/11/21 07:57:55;;;;;;;32.37;20.87;;;2.60;99.90;;;;;;4993909;28;20096;-54
2022/11/21 08:00:21;;;;;;;30.25;20.48;;;2.70;99.90;;;;;;4993503;28;20572;-55
2022/11/21 08:02:46;;;;;;;28.23;18.97;;;3.00;99.90;;;;;;5000687;28;20106;-52
2022/11/21 08:05:12;;;;;;;24.20;17.53;;;3.40;99.90;;;;;;5011459;28;20030;-54
2022/11/21 08:07:37;;;;;;;25.23;18.43;;;4.10;99.90;;;;;;5007051;28;20070;-51
2022/11/21 08:10:03;;;;;;;26.10;18.40;;;4.90;99.90;;;;;;5011729;28;20399;-55
2022/11/21 08:12:31;;;;;;;27.98;17.17;;;5.80;99.90;;;;;;5000593;28;20042;-53
2022/11/21 08:14:57;;;;;;;21.33;15.93;;;6.70;99.90;;;;;;5009132;28;20503;-51
2022/11/21 08:17:25;;;;;;;23.52;17.42;;;7.40;99.90;;;;;;4993546;28;20046;-54
2022/11/21 08:19:50;;;;;;;23.15;16.95;;;7.90;99.90;;;;;;4998275;28;20038;-56
2022/11/21 08:22:16;;;;;;;22.83;17.50;;;8.40;99.90;;;;;;5003986;28;20046;-54
2022/11/21 08:24:41;;;;;;;20.07;15.77;;;8.70;99.90;;;;;;4998981;28;20041;-56
2022/11/21 08:27:07;;;;;;;21.63;16.47;;;8.90;99.90;;;;;;5005151;28;20514;-56
2022/11/21 08:29:32;;;;;;;18.93;15.20;;;9.00;99.90;;;;;;5012482;28;20518;-51
2022/11/21 08:31:58;;;;;;;21.60;16.27;;;9.00;99.90;;;;;;5012133;28;20037;-51
2022/11/21 08:34:24;;;;;;;26.73;17.77;;;9.20;99.90;;;;;;5011837;28;20495;-56
2022/11/21 08:36:49;;;;;;;28.87;19.07;;;9.20;99.90;;;;;;5011067;28;20091;-54
2022/11/21 08:39:14;;;;;;;29.20;19.20;;;8.80;99.90;;;;;;4999843;28;20504;-51
2022/11/21 08:44:24;;;;;;;23.88;17.63;;;7.40;99.90;;;;;;5010522;28;20042;-55
2022/11/21 08:46:50;;;;;;;25.57;19.43;;;6.40;99.90;;;;;;5012352;28;20050;-52
2022/11/21 08:49:15;;;;;;;24.20;16.43;;;5.70;99.90;;;;;;4998442;28;20049;-55
2022/11/21 08:51:41;;;;;;;20.43;15.93;;;4.70;99.90;;;;;;5008922;28;20503;-55
2022/11/21 08:54:08;;;;;;;24.48;17.10;;;4.10;99.90;;;;;;5000631;28;20041;-54
2022/11/21 08:56:33;;;;;;;32.85;17.30;;;3.50;99.90;;;;;;5003947;28;20034;-51
2022/11/21 08:58:59;;;;;;;43.50;16.83;;;3.10;99.90;;;;;;4992250;28;20044;-56
2022/11/21 09:01:25;;;;;;;65.40;19.90;;;2.70;99.90;;;;;;4992232;28;20074;-57
2022/11/21 09:03:50;;;;;;;79.30;19.37;;;2.50;99.90;;;;;;4992630;28;20226;-53
2022/11/21 09:06:16;;;;;;;77.47;21.83;;;2.20;99.90;;;;;;4997064;28;20521;-51
2022/11/21 09:08:41;;;;;;;111.57;22.57;;;2.00;99.90;;;;;;4999286;28;20044;-54
2022/11/21 09:11:08;;;;;;;162.43;26.37;;;1.90;99.90;;;;;;5003115;28;20050;-57
2022/11/21 09:13:35;;;;;;;227.55;35.42;;;1.80;99.90;;;;;;4998207;28;20042;-54
2022/11/21 09:18:45;;;;;;;72.70;22.52;;;1.50;99.90;;;;;;4999209;28;20121;-54
2022/11/21 09:21:15;;;;;;;72.37;22.23;;;1.40;99.90;;;;;;4995495;28;20114;-51
2022/11/21 09:23:41;;;;;;;116.80;29.63;;;1.40;99.90;;;;;;5003654;28;20082;-53
2022/11/21 09:26:06;;;;;;;115.70;30.37;;;1.30;99.90;;;;;;5004820;28;20481;-59
2022/11/21 09:28:32;;;;;;;136.90;34.53;;;1.30;99.90;;;;;;5001370;28;20447;-58
2022/11/21 09:30:57;;;;;;;123.70;27.80;;;1.30;99.90;;;;;;4994760;28;20046;-57
2022/11/21 09:33:23;;;;;;;120.87;32.57;;;1.30;99.90;;;;;;5006840;28;20188;-55
2022/11/21 09:35:48;;;;;;;108.77;31.67;;;1.30;99.90;;;;;;5005248;28;20118;-56
2022/11/21 09:38:14;;;;;;;144.83;35.93;;;1.30;99.90;;;;;;5002820;28;20124;-52
2022/11/21 09:40:44;;;;;;;75.67;28.57;;;1.30;99.90;;;;;;5001660;28;20058;-56
2022/11/21 09:43:25;;;;;;;94.78;29.30;;;1.30;99.90;;;;;;5002206;28;20045;-55
2022/11/21 09:45:58;;;;;;;150.30;37.65;;;1.30;99.90;;;;;;5005372;28;20044;-53
2022/11/21 09:48:42;;;;;;;79.75;32.92;;;1.20;99.90;;;;;;5002939;28;20480;-60
2022/11/21 09:51:12;;;;;;;92.35;36.75;;;1.20;99.90;;;;;;5004300;28;20132;-57
2022/11/21 09:54:00;;;;;;;97.35;34.85;;;1.20;99.90;;;;;;4994527;28;20050;-57
2022/11/21 09:56:30;;;;;;;88.65;37.53;;;1.30;99.90;;;;;;4996453;28;20512;-55
2022/11/21 09:59:24;;;;;;;74.68;36.33;;;1.30;99.90;;;;;;4988692;28;20035;-56
2022/11/21 10:01:50;;;;;;;89.10;37.53;;;1.30;99.90;;;;;;4996247;28;20076;-54
2022/11/21 10:04:16;;;;;;;91.63;41.00;;;1.30;99.90;;;;;;4989544;28;20053;-51
2022/11/21 10:07:04;;;;;;;74.53;37.83;;;1.30;99.90;;;;;;4994836;28;20033;-50
2022/11/21 10:09:46;;;;;;;64.22;33.42;;;1.20;99.90;;;;;;4997065;28;20092;-50
2022/11/21 10:12:50;;;;;;;57.55;35.10;;;1.30;99.90;;;;;;5003621;28;20038;-51
2022/11/21 10:15:30;;;;;;;58.47;35.97;;;1.30;99.90;;;;;;5001027;28;20049;-57
2022/11/21 10:18:38;;;;;;;63.40;38.03;;;1.40;99.90;;;;;;4995478;28;20125;-50
2022/11/21 10:21:23;;;;;;;65.15;40.85;;;1.40;99.90;;;;;;4991077;28;20081;-53
2022/11/21 10:24:10;;;;;;;70.00;39.08;;;1.40;99.90;;;;;;4988878;28;20042;-51
2022/11/21 10:26:49;;;;;;;61.70;34.00;;;1.40;99.90;;;;;;4995197;28;20093;-52
2022/11/21 10:29:25;;;;;;;72.47;38.50;;;1.40;99.90;;;;;;4994676;28;20270;-51
2022/11/21 10:31:55;;;;;;;72.10;38.63;;;1.50;99.90;;;;;;4989489;28;20103;-56
2022/11/21 10:34:33;;;;;;;78.72;39.33;;;1.50;99.90;;;;;;4999134;28;20073;-53
2022/11/21 10:37:36;;;;;;;83.15;44.20;;;1.50;99.90;;;;;;4989789;28;20042;-59
2022/11/21 10:40:32;;;;;;;77.55;40.58;;;1.50;99.90;;;;;;4991145;28;20088;-53
2022/11/21 10:46:02;;;;;;;82.72;40.22;;;1.60;99.90;;;;;;4993180;28;20439;-52
2022/11/21 10:48:27;;;;;;;83.93;41.07;;;1.70;99.90;;;;;;4996082;28;20042;-56
2022/11/21 10:51:11;;;;;;;95.40;45.93;;;1.70;99.90;;;;;;4991246;28;20049;-57
2022/11/21 10:56:24;;;;;;;91.45;45.15;;;1.80;99.90;;;;;;4994287;28;20475;-56
2022/11/21 10:58:55;;;;;;;96.45;47.22;;;1.80;99.90;;;;;;4990890;28;20038;-56
2022/11/21 11:01:32;;;;;;;88.97;43.10;;;1.80;99.90;;;;;;4995899;28;20042;-54
2022/11/21 11:04:10;;;;;;;90.32;46.00;;;1.80;99.90;;;;;;4993802;28;20064;-54
2022/11/21 11:06:40;;;;;;;85.95;45.50;;;1.90;99.90;;;;;;4996333;28;20045;-55
2022/11/21 11:09:06;;;;;;;85.75;45.17;;;1.90;99.90;;;;;;4994261;28;20060;-55
2022/11/21 11:11:32;;;;;;;81.90;42.53;;;2.00;99.90;;;;;;4989287;28;20030;-54
2022/11/21 11:14:04;;;;;;;83.28;43.47;;;2.00;99.90;;;;;;4993717;28;20380;-58
2022/11/21 11:16:33;;;;;;;77.20;41.20;;;2.10;99.90;;;;;;4991299;28;20558;-53
2022/11/21 11:19:07;;;;;;;70.35;39.92;;;2.20;99.90;;;;;;4995793;28;20034;-56
2022/11/21 11:21:43;;;;;;;75.28;39.80;;;2.20;99.90;;;;;;4998065;28;20574;-57
2022/11/21 11:24:08;;;;;;;64.25;37.80;;;2.30;99.90;;;;;;4988709;28;20490;-54
2022/11/21 11:26:48;;;;;;;74.93;43.40;;;2.40;99.90;;;;;;4991824;28;20038;-52
2022/11/21 11:29:33;;;;;;;78.43;41.95;;;2.40;99.90;;;;;;4991871;28;20073;-58
2022/11/21 11:32:00;;;;;;;75.88;42.40;;;2.40;99.90;;;;;;4992416;28;20116;-52
2022/11/21 11:34:36;;;;;;;76.40;43.90;;;2.40;99.90;;;;;;4989288;28;20248;-58
2022/11/21 11:37:40;;;;;;;76.05;40.22;;;2.40;99.90;;;;;;4995459;28;20251;-56
2022/11/21 11:40:18;;;;;;;72.70;41.17;;;2.40;99.90;;;;;;4993705;28;20051;-55
2022/11/21 11:52:31;;;;;;;67.60;38.38;;;2.40;99.90;;;;;;4995789;28;20425;-59
2022/11/21 11:55:04;;;;;;;70.40;41.53;;;2.40;99.90;;;;;;4994736;28;20049;-55
2022/11/21 11:57:31;;;;;;;73.53;39.63;;;2.50;99.90;;;;;;4997051;28;20077;-57
2022/11/21 12:00:18;;;;;;;75.53;38.92;;;2.60;99.90;;;;;;4994008;28;20042;-52
2022/11/21 12:03:20;;;;;;;74.32;40.15;;;2.60;99.90;;;;;;4991079;28;20536;-51
2022/11/21 12:06:17;;;;;;;69.22;41.97;;;2.80;99.90;;;;;;4992746;28;20058;-55
2022/11/21 12:09:14;;;;;;;66.07;37.22;;;3.00;99.90;;;;;;4995195;28;20121;-51
2022/11/21 12:12:05;;;;;;;65.72;37.83;;;3.10;99.90;;;;;;5002555;28;20372;-56
2022/11/21 12:17:48;;;;;;;60.70;36.05;;;3.50;99.90;;;;;;5002340;28;20046;-53
2022/11/21 12:20:23;;;;;;;60.35;37.33;;;3.70;99.90;;;;;;4990371;28;20043;-57
2022/11/21 12:22:51;;;;;;;64.60;37.05;;;3.80;99.90;;;;;;4991287;28;20042;-52
2022/11/21 12:25:20;;;;;;;61.40;38.08;;;3.80;99.90;;;;;;5004073;28;20133;-57
2022/11/21 12:27:51;;;;;;;68.80;38.63;;;3.80;99.90;;;;;;4998755;28;20143;-51
2022/11/21 12:30:45;;;;;;;62.75;35.65;;;3.80;99.90;;;;;;5001752;28;20042;-57
2022/11/21 12:33:19;;;;;;;56.25;34.58;;;3.70;99.90;;;;;;4994632;28;20125;-56
2022/11/21 12:36:15;;;;;;;54.63;34.28;;;3.60;99.90;;;;;;4998615;28;20037;-51
2022/11/21 12:39:09;;;;;;;56.55;34.25;;;3.60;99.90;;;;;;4999935;28;20065;-55
2022/11/21 12:45:26;;;;;;;44.22;26.55;;;3.60;99.90;;;;;;4996568;28;20500;-52
2022/11/21 12:54:30;;;;;;;40.15;27.95;;;3.60;99.90;;;;;;4997776;28;20133;-57
2022/11/21 12:57:09;;;;;;;42.60;26.00;;;3.50;99.90;;;;;;4998187;28;20193;-51
2022/11/21 12:59:55;;;;;;;44.60;28.02;;;3.60;99.90;;;;;;4989620;28;20038;-59
2022/11/21 13:02:45;;;;;;;44.60;29.35;;;3.50;99.90;;;;;;4995662;28;20388;-59
2022/11/21 13:05:16;;;;;;;46.97;28.38;;;3.60;99.90;;;;;;4991328;28;20489;-57
2022/11/21 13:07:42;;;;;;;47.42;28.55;;;3.60;99.90;;;;;;4992284;28;20496;-51
2022/11/21 13:10:13;;;;;;;;;;;3.50;99.90;;;;;;4992912;28;20516;-57
2022/11/21 13:12:50;;;;;;;42.42;26.75;;;3.50;99.90;;;;;;4999224;28;19928;-57
2022/11/21 13:15:53;;;;;;;45.65;27.92;;;3.50;99.90;;;;;;4994221;28;20609;-57
2022/11/21 13:18:27;;;;;;;45.80;28.45;;;3.50;99.90;;;;;;4999450;28;20047;-52
2022/11/21 13:20:53;;;;;;;52.15;29.30;;;3.50;99.90;;;;;;4993334;28;20092;-55
2022/11/21 13:23:37;;;;;;;51.23;29.97;;;3.50;99.90;;;;;;5000484;28;20492;-58
2022/11/21 13:26:32;;;;;;;49.15;28.52;;;3.50;99.90;;;;;;4998136;28;20080;-54
2022/11/21 13:29:14;;;;;;;49.67;30.70;;;3.60;99.90;;;;;;4985832;28;20049;-53
2022/11/21 13:31:40;;;;;;;50.08;30.98;;;3.60;99.90;;;;;;5002556;28;20509;-54
2022/11/21 13:34:31;;;;;;;54.55;31.27;;;3.60;99.90;;;;;;5000188;28;20706;-55